Time;durP1;ratioP1;P1;durP2;ratioP2;P2;SDS_P1;SDS_P2;PMS_P1;PMS_P2;Temp;Humidity;BMP_temperature;BMP_pressure;BME280_temperature;BME280_humidity;BME280_pressure;Samples;Min_cycle;Max_cycle;Signal;HPM_P1;HPM_P2
2023/02/11 00:01:43;;;;;;;17.50;13.17;;;;;;;5.17;97.63;101939.47;5074180;28;20178;-81
2023/02/11 00:04:08;;;;;;;37.70;25.00;;;;;;;5.18;97.38;101943.00;5074733;28;20636;-79
2023/02/11 00:06:35;;;;;;;32.50;20.70;;;;;;;5.20;97.53;101930.84;5074286;28;20304;-81
2023/02/11 00:09:00;;;;;;;40.53;25.37;;;;;;;5.20;97.44;101949.00;5074314;28;20740;-82
2023/02/11 00:11:29;;;;;;;39.93;22.50;;;;;;;5.19;97.65;101940.03;5074118;28;20257;-83
2023/02/11 00:13:55;;;;;;;41.80;22.70;;;;;;;5.21;97.82;101935.25;5074276;28;20166;-81
2023/02/11 00:16:21;;;;;;;49.93;25.70;;;;;;;5.19;97.81;101915.66;5074198;28;20174;-83
2023/02/11 00:18:46;;;;;;;45.00;25.13;;;;;;;5.16;98.20;101913.44;5074349;28;20182;-79
2023/02/11 00:21:14;;;;;;;39.83;20.73;;;;;;;5.15;98.42;101905.56;5072528;28;20182;-83
2023/02/11 00:23:39;;;;;;;45.53;24.70;;;;;;;5.17;98.29;101890.69;5074127;28;20634;-84
2023/02/11 00:26:16;;;;;;;34.43;22.80;;;;;;;5.19;98.67;101891.28;5074065;28;20258;-84
2023/02/11 00:28:42;;;;;;;26.83;19.83;;;;;;;5.20;98.90;101906.47;5074049;28;20162;-82
2023/02/11 00:31:07;;;;;;;40.30;26.20;;;;;;;5.20;98.65;101920.00;5073692;28;20179;-81
2023/02/11 00:33:32;;;;;;;41.27;25.17;;;;;;;5.22;99.12;101936.06;5073986;28;20181;-83
2023/02/11 00:36:04;;;;;;;50.70;27.10;;;;;;;5.22;98.91;101939.59;5073911;28;20179;-82
2023/02/11 00:38:29;;;;;;;54.90;28.90;;;;;;;5.21;99.06;101932.53;5073828;28;20284;-79
2023/02/11 00:40:54;;;;;;;33.63;21.33;;;;;;;5.23;99.27;101924.16;5072230;28;20340;-82
2023/02/11 00:43:19;;;;;;;48.73;23.00;;;;;;;5.22;99.50;101922.50;5073824;28;20175;-83
2023/02/11 00:45:45;;;;;;;40.37;23.63;;;;;;;5.29;99.34;101926.72;5073594;28;20201;-84
2023/02/11 00:48:10;;;;;;;37.80;23.30;;;;;;;5.27;99.54;101919.91;5073622;28;20181;-81
2023/02/11 00:50:35;;;;;;;45.30;24.90;;;;;;;5.28;99.71;101927.78;5073226;28;20210;-80
2023/02/11 00:53:01;;;;;;;62.83;27.23;;;;;;;5.29;99.73;101918.59;5073843;28;20564;-82
2023/02/11 00:55:26;;;;;;;61.93;33.37;;;;;;;5.28;99.90;101932.38;5073622;28;20266;-83
2023/02/11 00:57:51;;;;;;;47.90;26.47;;;;;;;5.24;100.00;101942.06;5073451;28;20167;-78
2023/02/11 01:00:17;;;;;;;28.27;18.87;;;;;;;5.19;100.00;101934.63;5073460;28;20183;-79
2023/02/11 01:02:42;;;;;;;49.90;23.20;;;;;;;5.17;100.00;101936.75;5073736;28;20170;-83
2023/02/11 01:05:07;;;;;;;52.07;26.37;;;;;;;5.15;100.00;101933.47;5073329;28;20695;-80
2023/02/11 01:07:33;;;;;;;38.80;22.37;;;;;;;5.14;100.00;101934.53;5071906;28;20265;-84
2023/02/11 01:09:58;;;;;;;53.50;30.73;;;;;;;5.17;100.00;101930.50;5073050;28;20296;-83
2023/02/11 01:12:24;;;;;;;32.07;22.30;;;;;;;5.16;100.00;101937.81;5073224;28;20221;-81
2023/02/11 01:14:49;;;;;;;31.50;18.40;;;;;;;5.16;100.00;101935.09;5073128;28;20171;-82
2023/02/11 01:17:15;;;;;;;51.20;29.03;;;;;;;5.14;100.00;101950.78;5073085;28;20179;-82
2023/02/11 01:19:40;;;;;;;32.47;19.67;;;;;;;5.14;100.00;101931.00;5073401;28;20626;-84
2023/02/11 01:22:06;;;;;;;53.67;26.47;;;;;;;5.11;100.00;101932.31;5072881;28;20574;-83
2023/02/11 01:24:31;;;;;;;57.83;36.37;;;;;;;5.09;100.00;101912.75;5071637;28;20185;-83
2023/02/11 01:26:56;;;;;;;51.43;29.70;;;;;;;5.10;100.00;101916.28;5073047;28;20609;-83
2023/02/11 01:29:21;;;;;;;56.03;29.53;;;;;;;5.08;100.00;101911.13;5073069;28;20202;-81
2023/02/11 01:31:47;;;;;;;66.97;36.73;;;;;;;5.05;100.00;101893.44;5072667;28;20178;-79
2023/02/11 01:34:13;;;;;;;47.83;23.63;;;;;;;5.04;100.00;101902.63;5072892;28;20224;-81
2023/02/11 01:36:39;;;;;;;65.07;33.07;;;;;;;5.00;100.00;101901.47;5072762;28;20198;-83
2023/02/11 01:39:04;;;;;;;77.27;32.40;;;;;;;4.97;100.00;101898.41;5072747;28;20197;-83
2023/02/11 01:41:29;;;;;;;66.17;34.07;;;;;;;4.94;100.00;101888.06;5072483;28;20195;-83
2023/02/11 01:43:55;;;;;;;62.20;30.73;;;;;;;4.92;100.00;101882.88;5072896;28;20174;-82
2023/02/11 01:46:37;;;;;;;49.17;28.10;;;;;;;4.93;100.00;101875.59;5072657;28;20241;-82
2023/02/11 01:49:11;;;;;;;75.47;37.37;;;;;;;4.90;100.00;101876.03;5072399;28;20207;-84
2023/02/11 01:51:36;;;;;;;60.83;33.63;;;;;;;4.89;100.00;101874.38;5072592;28;20170;-83
2023/02/11 01:59:45;;;;;;;63.53;35.57;;;;;;;4.94;100.00;101869.94;5072600;28;20636;-80
2023/02/11 02:02:13;;;;;;;41.83;24.17;;;;;;;4.97;100.00;101858.59;5072155;28;20167;-83
2023/02/11 02:04:51;;;;;;;45.40;25.90;;;;;;;4.96;100.00;101840.72;5072510;28;20578;-82
2023/02/11 02:07:27;;;;;;;56.20;32.57;;;;;;;4.97;100.00;101844.25;5072128;28;20186;-79
2023/02/11 02:09:59;;;;;;;62.80;34.30;;;;;;;4.96;100.00;101824.47;5072050;28;20223;-82
2023/02/11 02:12:24;;;;;;;42.57;26.40;;;;;;;4.97;100.00;101822.59;5071412;28;20191;-83
2023/02/11 02:14:49;;;;;;;45.67;26.27;;;;;;;4.98;100.00;101814.22;5071582;28;20202;-82
2023/02/11 02:17:33;;;;;;;55.37;30.60;;;;;;;4.98;100.00;101813.38;5070250;28;20265;-79
2023/02/11 02:20:28;;;;;;;50.60;26.47;;;;;;;4.96;100.00;101808.22;5071528;28;20196;-82
2023/02/11 02:23:20;;;;;;;41.13;26.73;;;;;;;4.94;100.00;101807.63;5040269;28;20264;-82
2023/02/11 02:26:18;;;;;;;63.67;30.23;;;;;;;4.92;100.00;101793.53;5071543;28;20182;-82
2023/02/11 02:28:57;;;;;;;47.53;27.33;;;;;;;4.90;100.00;101794.81;5071380;28;20269;-80
2023/02/11 02:31:40;;;;;;;67.70;33.27;;;;;;;4.89;100.00;101795.88;5071194;28;20175;-82
2023/02/11 02:34:12;;;;;;;59.83;33.83;;;;;;;4.87;100.00;101790.69;5071740;28;20262;-84
2023/02/11 02:36:54;;;;;;;75.37;36.50;;;;;;;4.86;100.00;101790.94;5071402;28;20170;-83
2023/02/11 02:39:24;;;;;;;70.27;36.17;;;;;;;4.88;100.00;101807.75;5071587;28;20243;-83
2023/02/11 02:41:52;;;;;;;68.87;27.80;;;;;;;4.92;100.00;101811.63;5069673;28;20170;-83
2023/02/11 02:44:18;;;;;;;62.33;35.23;;;;;;;4.94;100.00;101833.91;5071045;28;20205;-83
2023/02/11 02:46:43;;;;;;;53.77;29.00;;;;;;;4.94;100.00;101817.66;5071013;28;20182;-83
2023/02/11 02:49:13;;;;;;;48.33;25.60;;;;;;;4.93;100.00;101826.84;5070806;28;20205;-81
2023/02/11 02:52:20;;;;;;;70.07;32.63;;;;;;;4.93;100.00;101814.13;5070639;28;20409;-83
2023/02/11 02:54:48;;;;;;;52.07;29.87;;;;;;;4.93;100.00;101806.00;5064807;28;20646;-81
2023/02/11 02:57:37;;;;;;;33.17;20.83;;;;;;;4.92;100.00;101803.50;5069462;28;20202;-80
2023/02/11 03:00:42;;;;;;;72.33;29.50;;;;;;;4.93;100.00;101806.00;5070667;28;20514;-82
2023/02/11 03:03:24;;;;;;;37.37;25.30;;;;;;;4.93;100.00;101794.34;5070668;28;20193;-84
2023/02/11 03:06:03;;;;;;;37.07;22.10;;;;;;;4.94;100.00;101793.28;5070819;28;20193;-84
2023/02/11 03:08:45;;;;;;;43.93;23.20;;;;;;;4.94;100.00;101794.09;5070671;28;20224;-83
2023/02/11 03:11:14;;;;;;;57.37;32.40;;;;;;;4.93;100.00;101791.63;5070344;28;20189;-83
2023/02/11 03:13:40;;;;;;;57.77;29.87;;;;;;;4.93;100.00;101783.50;5069203;28;20638;-83
2023/02/11 03:16:16;;;;;;;70.53;32.13;;;;;;;4.93;100.00;101783.50;5070533;28;20183;-83
2023/02/11 03:18:46;;;;;;;58.27;30.87;;;;;;;4.93;100.00;101784.34;5070700;28;20180;-81
2023/02/11 03:21:14;;;;;;;62.80;29.97;;;;;;;4.92;100.00;101774.56;5070135;28;20182;-81
2023/02/11 03:23:46;;;;;;;25.20;19.93;;;;;;;4.93;100.00;101764.56;5069634;28;20170;-84
2023/02/11 03:26:20;;;;;;;60.73;32.63;;;;;;;4.93;100.00;101762.66;5070391;28;20638;-85
2023/02/11 03:28:53;;;;;;;53.73;32.20;;;;;;;4.91;100.00;101753.94;5070550;28;20618;-80
2023/02/11 03:31:27;;;;;;;43.03;24.30;;;;;;;4.93;100.00;101751.00;5070075;28;20200;-81
2023/02/11 03:34:02;;;;;;;38.33;24.57;;;;;;;4.91;100.00;101745.00;5070447;28;20255;-84
2023/02/11 03:36:50;;;;;;;62.97;28.70;;;;;;;4.93;100.00;101741.00;5068968;28;20170;-81
2023/02/11 03:39:20;;;;;;;43.90;23.10;;;;;;;4.90;100.00;101741.47;5070346;28;20235;-84
2023/02/11 03:41:48;;;;;;;42.27;22.17;;;;;;;4.90;100.00;101748.75;5070038;28;20537;-82
2023/02/11 03:44:15;;;;;;;39.60;25.00;;;;;;;4.91;100.00;101753.13;5070305;28;20175;-79
2023/02/11 03:46:46;;;;;;;51.90;26.97;;;;;;;4.89;100.00;101729.00;5070246;28;20177;-83
2023/02/11 03:49:16;;;;;;;37.87;26.37;;;;;;;4.87;100.00;101736.53;5068730;28;20197;-82
2023/02/11 03:51:42;;;;;;;44.40;29.97;;;;;;;4.88;100.00;101742.78;5070188;28;20166;-84
2023/02/11 03:54:17;;;;;;;35.87;20.70;;;;;;;4.87;100.00;101741.13;5070164;28;20534;-85
2023/02/11 03:56:51;;;;;;;29.77;20.53;;;;;;;4.86;100.00;101745.72;5070228;28;20174;-83
2023/02/11 03:59:17;;;;;;;46.57;24.80;;;;;;;4.86;100.00;101745.72;5069994;28;20187;-83
2023/02/11 04:01:42;;;;;;;27.37;16.27;;;;;;;4.87;100.00;101755.50;5069893;28;20626;-83
2023/02/11 04:04:07;;;;;;;35.70;20.93;;;;;;;4.87;100.00;101744.66;5068798;28;20178;-82
2023/02/11 04:06:33;;;;;;;44.23;23.30;;;;;;;4.87;100.00;101750.06;5070021;28;20186;-80
2023/02/11 04:08:58;;;;;;;38.63;19.30;;;;;;;4.87;100.00;101758.19;5070001;28;20358;-81
2023/02/11 04:11:23;;;;;;;57.17;31.53;;;;;;;4.89;100.00;101761.47;5069705;28;20175;-83
2023/02/11 04:13:48;;;;;;;49.53;27.17;;;;;;;4.89;100.00;101760.66;5069885;28;20185;-80
2023/02/11 04:16:14;;;;;;;28.67;23.20;;;;;;;4.90;100.00;101767.72;5069624;28;20265;-83
2023/02/11 04:18:39;;;;;;;30.07;19.20;;;;;;;4.89;100.00;101766.91;5069805;28;20174;-81
2023/02/11 04:21:04;;;;;;;53.53;26.37;;;;;;;4.91;100.00;101763.94;5068205;28;20209;-84
2023/02/11 04:23:30;;;;;;;51.60;25.10;;;;;;;4.90;100.00;101765.00;5069926;28;20175;-82
2023/02/11 04:25:55;;;;;;;38.93;21.10;;;;;;;4.88;100.00;101775.28;5069792;28;20232;-81
2023/02/11 04:28:20;;;;;;;52.67;29.10;;;;;;;4.88;100.00;101767.16;5069830;28;20618;-82
2023/02/11 04:30:47;;;;;;;61.07;32.37;;;;;;;4.87;100.00;101776.34;5069329;28;20209;-81
2023/02/11 04:33:13;;;;;;;45.30;28.73;;;;;;;4.82;100.00;101755.41;5069870;28;20175;-82
2023/02/11 04:35:38;;;;;;;61.73;29.80;;;;;;;4.80;100.00;101756.72;5072055;28;20656;-82
2023/02/11 04:38:03;;;;;;;46.63;25.47;;;;;;;4.77;100.00;101753.44;5071907;28;20171;-84
2023/02/11 04:40:28;;;;;;;44.27;26.07;;;;;;;4.76;100.00;101746.34;5073544;28;20266;-81
2023/02/11 04:42:54;;;;;;;43.87;25.00;;;;;;;4.74;100.00;101763.88;5072198;28;20662;-85
2023/02/11 04:45:19;;;;;;;43.00;26.57;;;;;;;4.73;100.00;101760.34;5073130;28;20297;-82
2023/02/11 04:47:44;;;;;;;45.73;24.20;;;;;;;4.73;100.00;101765.78;5073303;28;20652;-84
2023/02/11 04:50:09;;;;;;;51.13;27.77;;;;;;;4.71;100.00;101753.53;5072782;28;20198;-82
2023/02/11 04:52:35;;;;;;;26.10;19.57;;;;;;;4.70;100.00;101758.13;5071897;28;20273;-83
2023/02/11 04:55:00;;;;;;;37.83;23.23;;;;;;;4.68;100.00;101754.84;5072759;28;20175;-84
2023/02/11 04:57:25;;;;;;;42.07;24.40;;;;;;;4.67;100.00;101739.69;5073291;28;20669;-81
2023/02/11 04:59:51;;;;;;;43.27;25.10;;;;;;;4.67;100.00;101742.38;5073269;28;20178;-79
2023/02/11 05:02:16;;;;;;;36.53;22.63;;;;;;;4.68;100.00;101743.22;5072802;28;20234;-83
2023/02/11 05:04:41;;;;;;;39.30;23.33;;;;;;;4.68;100.00;101743.22;5073011;28;20166;-83
2023/02/11 05:07:06;;;;;;;51.70;25.80;;;;;;;4.69;100.00;101744.84;5072771;28;20645;-82
2023/02/11 05:09:32;;;;;;;51.20;28.13;;;;;;;4.69;100.00;101740.25;5072754;28;20198;-79
2023/02/11 05:11:57;;;;;;;16.13;14.67;;;;;;;4.69;100.00;101732.13;5072556;28;20175;-82
2023/02/11 05:14:22;;;;;;;10.27;9.33;;;;;;;4.71;100.00;101738.13;5071557;28;20196;-78
2023/02/11 05:16:47;;;;;;;38.30;20.43;;;;;;;4.71;100.00;101740.84;5073404;28;20230;-83
2023/02/11 05:19:13;;;;;;;36.37;26.13;;;;;;;4.72;100.00;101728.13;5071342;28;20174;-80
2023/02/11 05:21:38;;;;;;;39.67;24.17;;;;;;;4.75;100.00;101741.16;5072388;28;20167;-83
2023/02/11 05:24:04;;;;;;;27.77;19.57;;;;;;;4.76;100.00;101748.22;5072651;28;20170;-85
2023/02/11 05:26:29;;;;;;;29.73;22.47;;;;;;;4.78;100.00;101752.38;5072575;28;20174;-79
2023/02/11 05:28:55;;;;;;;19.73;17.67;;;;;;;4.80;100.00;101741.28;5072476;28;20508;-84
2023/02/11 05:31:20;;;;;;;31.60;20.43;;;;;;;4.83;100.00;101737.28;5072575;28;20173;-79
2023/02/11 05:33:45;;;;;;;28.63;22.47;;;;;;;4.84;100.00;101741.63;5072538;28;20228;-81
2023/02/11 05:36:12;;;;;;;19.43;16.17;;;;;;;4.86;100.00;101753.03;5072469;28;20247;-84
2023/02/11 05:38:38;;;;;;;25.70;18.17;;;;;;;4.86;100.00;101759.25;5070909;28;20198;-79
2023/02/11 05:41:05;;;;;;;30.10;21.57;;;;;;;4.88;100.00;101764.44;5070847;28;20273;-81
2023/02/11 05:43:31;;;;;;;30.43;19.83;;;;;;;4.92;100.00;101760.19;5072277;28;20175;-83
2023/02/11 05:45:56;;;;;;;28.83;21.63;;;;;;;4.95;100.00;101752.41;5070398;28;20182;-81
2023/02/11 05:48:22;;;;;;;21.03;18.17;;;;;;;4.99;100.00;101747.34;5071912;28;20202;-80
2023/02/11 05:50:47;;;;;;;39.87;24.30;;;;;;;5.02;100.00;101753.06;5071704;28;20245;-77
2023/02/11 05:53:14;;;;;;;30.73;19.63;;;;;;;5.05;100.00;101754.47;5072080;28;20223;-77
2023/02/11 05:55:39;;;;;;;32.93;22.87;;;;;;;5.07;100.00;101741.53;5072057;28;20174;-83
2023/02/11 05:58:06;;;;;;;28.17;19.80;;;;;;;5.07;100.00;101758.59;5072059;28;20183;-82
2023/02/11 06:00:32;;;;;;;31.60;18.27;;;;;;;5.07;100.00;101752.38;5071536;28;20182;-81
2023/02/11 06:02:57;;;;;;;27.50;18.53;;;;;;;5.09;100.00;101761.06;5072155;28;20174;-82
2023/02/11 06:05:23;;;;;;;37.27;24.43;;;;;;;5.12;100.00;101765.19;5072070;28;20182;-82
2023/02/11 06:07:48;;;;;;;28.67;20.00;;;;;;;5.12;100.00;101759.75;5071592;28;20182;-82
2023/02/11 06:10:13;;;;;;;33.50;19.40;;;;;;;5.12;100.00;101759.75;5071301;28;20209;-83
2023/02/11 06:12:39;;;;;;;32.27;21.77;;;;;;;5.13;100.00;101762.22;5071716;28;20170;-84
2023/02/11 06:15:05;;;;;;;49.80;28.10;;;;;;;5.14;100.00;101752.22;5071561;28;20175;-82
2023/02/11 06:17:32;;;;;;;35.57;25.33;;;;;;;5.12;100.00;101747.03;5071733;28;20183;-84
2023/02/11 06:19:58;;;;;;;33.50;22.60;;;;;;;5.13;100.00;101745.97;5071521;28;20179;-85
2023/02/11 06:22:23;;;;;;;32.07;21.33;;;;;;;5.13;100.00;101745.97;5070174;28;20173;-84
2023/02/11 06:24:48;;;;;;;26.83;20.63;;;;;;;5.13;100.00;101737.84;5071425;28;20162;-80
2023/02/11 06:27:14;;;;;;;31.47;20.27;;;;;;;5.15;100.00;101749.25;5071805;28;20170;-79
2023/02/11 06:29:39;;;;;;;38.57;23.07;;;;;;;5.15;100.00;101751.13;5071530;28;20194;-84
2023/02/11 06:32:04;;;;;;;20.37;13.23;;;;;;;5.18;100.00;101756.06;5071599;28;20166;-82
2023/02/11 06:34:30;;;;;;;41.93;24.30;;;;;;;5.19;100.00;101755.81;5071653;28;20569;-83
2023/02/11 06:36:55;;;;;;;40.97;19.83;;;;;;;5.22;100.00;101765.38;5071521;28;20171;-83
2023/02/11 06:39:20;;;;;;;32.07;20.57;;;;;;;5.22;100.00;101754.53;5071426;28;20201;-84
2023/02/11 06:41:46;;;;;;;31.50;19.77;;;;;;;5.22;100.00;101762.66;5071130;28;20182;-79
2023/02/11 06:44:11;;;;;;;27.30;17.13;;;;;;;5.22;100.00;101765.38;5071701;28;20210;-80
2023/02/11 06:46:36;;;;;;;35.07;20.27;;;;;;;5.22;100.00;101770.78;5071384;28;20205;-84
2023/02/11 06:49:01;;;;;;;23.23;18.13;;;;;;;5.22;100.00;101763.50;5071767;28;20265;-84
2023/02/11 06:51:27;;;;;;;38.77;20.13;;;;;;;5.22;100.00;101765.38;5071218;28;20178;-84
2023/02/11 06:53:53;;;;;;;26.60;18.37;;;;;;;5.23;100.00;101770.53;5071387;28;20179;-89
2023/02/11 06:56:21;;;;;;;39.00;21.50;;;;;;;5.25;100.00;101776.53;5071385;28;20216;-80
2023/02/11 06:58:47;;;;;;;42.27;25.80;;;;;;;5.28;100.00;101767.09;5071529;28;20179;-87
2023/02/11 07:01:14;;;;;;;20.27;15.77;;;;;;;5.30;100.00;101773.91;5070956;28;20204;-83
2023/02/11 07:03:42;;;;;;;25.83;20.60;;;;;;;5.32;100.00;101773.66;5071307;28;20236;-81
2023/02/11 07:06:10;;;;;;;35.43;20.80;;;;;;;5.35;100.00;101778.59;5069497;28;20615;-87
2023/02/11 07:08:36;;;;;;;26.10;12.40;;;;;;;5.37;100.00;101776.50;5070971;28;20178;-87
2023/02/11 07:11:09;;;;;;;58.10;32.07;;;;;;;5.37;100.00;101763.75;5070830;28;20611;-86
2023/02/11 07:13:34;;;;;;;27.53;20.20;;;;;;;5.40;100.00;101772.47;5071070;28;20166;-83
2023/02/11 07:16:06;;;;;;;37.13;21.63;;;;;;;5.40;100.00;101775.16;5070861;28;20167;-80
2023/02/11 07:18:31;;;;;;;29.80;23.53;;;;;;;5.40;100.00;101772.47;5071226;28;20224;-74
2023/02/11 07:20:57;;;;;;;43.67;26.40;;;;;;;5.40;100.00;101776.00;5070594;28;20657;-78
2023/02/11 07:23:22;;;;;;;28.83;17.37;;;;;;;5.43;100.00;101783.63;5069574;28;20265;-85
2023/02/11 07:25:47;;;;;;;45.57;27.17;;;;;;;5.45;100.00;101795.03;5070949;28;20233;-72
2023/02/11 07:28:12;;;;;;;31.27;18.70;;;;;;;5.48;100.00;101791.84;5070920;28;20170;-74
2023/02/11 07:30:38;;;;;;;32.57;21.60;;;;;;;5.49;100.00;101798.09;5070469;28;20202;-72
2023/02/11 07:33:03;;;;;;;46.50;25.33;;;;;;;5.48;100.00;101802.69;5070943;28;20687;-73
2023/02/11 07:35:28;;;;;;;31.97;21.77;;;;;;;5.48;100.00;101796.44;5070786;28;20174;-73
2023/02/11 07:37:54;;;;;;;44.83;23.70;;;;;;;5.49;100.00;101803.50;5070859;28;20503;-78
2023/02/11 07:40:19;;;;;;;36.63;25.30;;;;;;;5.50;100.00;101799.75;5070463;28;20174;-73
2023/02/11 07:42:44;;;;;;;20.40;18.30;;;;;;;5.51;100.00;101802.22;5070375;28;20174;-74
2023/02/11 07:45:10;;;;;;;24.87;17.53;;;;;;;5.50;100.00;101794.34;5070475;28;20265;-75
2023/02/11 07:47:35;;;;;;;25.47;18.13;;;;;;;5.49;100.00;101798.09;5068862;28;20167;-73
2023/02/11 07:50:01;;;;;;;42.13;22.87;;;;;;;5.49;100.00;101803.50;5070263;28;20198;-74
2023/02/11 07:52:30;;;;;;;42.07;23.10;;;;;;;5.51;100.00;101802.22;5070765;28;20174;-73
2023/02/11 07:54:55;;;;;;;39.83;22.20;;;;;;;5.52;100.00;101808.47;5070466;28;20227;-73
2023/02/11 07:57:21;;;;;;;43.60;27.17;;;;;;;5.52;100.00;101811.16;5070434;28;20254;-72
2023/02/11 07:59:46;;;;;;;45.03;21.23;;;;;;;5.53;100.00;101804.69;5070409;28;20634;-73
2023/02/11 08:02:12;;;;;;;47.43;24.27;;;;;;;5.54;100.00;101803.63;5070264;28;20180;-73
2023/02/11 08:04:37;;;;;;;39.53;21.90;;;;;;;5.58;100.00;101797.44;5070468;28;20258;-72
2023/02/11 08:07:03;;;;;;;41.10;22.47;;;;;;;5.62;100.00;101809.44;5070653;28;20845;-78
2023/02/11 08:09:29;;;;;;;49.53;22.73;;;;;;;5.64;100.00;101803.78;5070708;28;20556;-78
2023/02/11 08:11:54;;;;;;;20.23;15.50;;;;;;;5.65;100.00;101791.88;5074321;28;20178;-78
2023/02/11 08:14:19;;;;;;;45.20;25.83;;;;;;;5.66;100.00;101807.09;5076854;28;20175;-78
2023/02/11 08:16:45;;;;;;;46.00;23.37;;;;;;;5.67;100.00;101797.88;5074097;28;20551;-77
2023/02/11 08:19:13;;;;;;;38.57;21.67;;;;;;;5.70;100.00;101791.97;5074318;28;20174;-76
2023/02/11 08:21:39;;;;;;;41.83;29.40;;;;;;;5.69;100.00;101787.59;5073966;28;20242;-78
2023/02/11 08:24:04;;;;;;;42.30;20.93;;;;;;;5.71;100.00;101792.78;5073914;28;20190;-78
2023/02/11 08:26:31;;;;;;;47.30;20.10;;;;;;;5.75;100.00;101804.78;5073421;28;20178;-77
2023/02/11 08:28:57;;;;;;;39.23;21.87;;;;;;;5.76;100.00;101799.09;5073359;28;20170;-78
2023/02/11 08:31:25;;;;;;;54.03;30.50;;;;;;;5.77;100.00;101800.75;5073310;28;20692;-78
2023/02/11 08:33:53;;;;;;;33.40;17.03;;;;;;;5.79;100.00;101803.22;5074000;28;20171;-77
2023/02/11 08:36:24;;;;;;;41.63;24.60;;;;;;;5.80;100.00;101818.44;5074067;28;20664;-77
2023/02/11 08:38:49;;;;;;;53.93;26.30;;;;;;;5.78;100.00;101815.94;5073427;28;20177;-76
2023/02/11 08:41:16;;;;;;;39.63;21.33;;;;;;;5.79;100.00;101822.22;5073638;28;20714;-79
2023/02/11 08:43:43;;;;;;;28.30;20.30;;;;;;;5.82;100.00;101838.81;5073743;28;20182;-79
2023/02/11 08:46:12;;;;;;;28.37;18.87;;;;;;;5.81;100.00;101834.47;5073714;28;20170;-83
2023/02/11 08:48:37;;;;;;;38.90;22.07;;;;;;;5.81;100.00;101837.16;5073633;28;20175;-78
2023/02/11 08:51:08;;;;;;;40.90;22.43;;;;;;;5.79;100.00;101831.19;5073423;28;20210;-82
2023/02/11 08:53:34;;;;;;;35.70;23.93;;;;;;;5.78;100.00;101839.53;5073651;28;20159;-83
2023/02/11 08:55:59;;;;;;;58.57;28.37;;;;;;;5.81;100.00;101847.19;5073352;28;20208;-76
2023/02/11 08:58:24;;;;;;;44.03;24.80;;;;;;;5.82;100.00;101846.94;5073089;28;20171;-78
2023/02/11 09:00:50;;;;;;;47.37;23.83;;;;;;;5.83;100.00;101839.63;5072961;28;20178;-80
2023/02/11 09:03:16;;;;;;;50.47;26.00;;;;;;;5.84;100.00;101822.28;5073148;28;20221;-80
2023/02/11 09:05:48;;;;;;;20.63;16.77;;;;;;;5.87;100.00;101829.94;5071775;28;20185;-72
2023/02/11 09:08:15;;;;;;;35.27;22.37;;;;;;;5.86;100.00;101826.41;5072897;28;20182;-78
2023/02/11 09:10:41;;;;;;;35.93;22.67;;;;;;;5.87;100.00;101829.94;5072766;28;20225;-80
2023/02/11 09:13:07;;;;;;;38.13;23.93;;;;;;;5.85;100.00;101832.06;5072843;28;20175;-79
2023/02/11 09:15:32;;;;;;;38.83;21.53;;;;;;;5.87;100.00;101844.31;5072825;28;20644;-78
2023/02/11 09:17:58;;;;;;;50.30;28.10;;;;;;;5.90;100.00;101837.59;5071345;28;20206;-79
2023/02/11 09:20:25;;;;;;;54.80;30.37;;;;;;;5.95;100.00;101852.09;5072118;28;20170;-78
2023/02/11 09:22:50;;;;;;;47.33;24.67;;;;;;;5.99;100.00;101848.88;5071546;28;20179;-81
2023/02/11 09:25:16;;;;;;;44.53;22.37;;;;;;;6.01;100.00;101863.00;5072667;28;20542;-78
2023/02/11 09:27:41;;;;;;;40.60;26.90;;;;;;;6.00;100.00;101866.78;5072578;28;20178;-76
2023/02/11 09:30:07;;;;;;;59.13;27.67;;;;;;;6.03;100.00;101864.41;5072168;28;20348;-81
2023/02/11 09:32:33;;;;;;;34.90;21.87;;;;;;;6.09;100.00;101874.28;5072611;28;20179;-81
2023/02/11 09:34:58;;;;;;;30.77;19.60;;;;;;;6.13;100.00;101874.63;5072895;28;20184;-78
2023/02/11 09:37:23;;;;;;;42.70;22.47;;;;;;;6.17;100.00;101873.88;5072387;28;20253;-76
2023/02/11 09:39:49;;;;;;;26.17;18.17;;;;;;;6.21;100.00;101872.28;5072843;28;20170;-76
2023/02/11 09:42:35;;;;;;;30.37;19.20;;;;;;;6.24;100.00;101871.00;5072738;28;20170;-75
2023/02/11 09:45:01;;;;;;;53.10;24.80;;;;;;;6.24;100.00;101877.25;5072818;28;20163;-77
2023/02/11 09:47:30;;;;;;;40.90;24.67;;;;;;;6.24;100.00;101884.56;5071123;28;20182;-77
2023/02/11 09:50:11;;;;;;;55.70;23.83;;;;;;;6.29;100.00;101891.97;5072114;28;20210;-76
2023/02/11 09:52:51;;;;;;;32.63;21.23;;;;;;;6.30;100.00;101899.03;5072466;28;20185;-77
2023/02/11 09:55:25;;;;;;;32.33;19.43;;;;;;;6.32;100.00;101916.72;5072514;28;20626;-76
2023/02/11 09:57:51;;;;;;;43.80;24.07;;;;;;;6.33;100.00;101910.22;5072015;28;20265;-76
2023/02/11 10:00:18;;;;;;;40.97;25.47;;;;;;;6.36;100.00;101915.13;5072025;28;20253;-76
2023/02/11 10:03:02;;;;;;;52.37;25.43;;;;;;;6.39;100.00;101920.09;5072150;28;20641;-76
2023/02/11 10:05:33;;;;;;;32.17;24.13;;;;;;;6.41;100.00;101934.25;5072300;28;20273;-75
2023/02/11 10:08:15;;;;;;;48.20;26.97;;;;;;;6.40;100.00;101924.47;5071999;28;20170;-76
2023/02/11 10:10:52;;;;;;;22.93;18.90;;;;;;;6.42;100.00;101916.88;5071900;28;20291;-77
2023/02/11 10:13:32;;;;;;;44.60;27.93;;;;;;;6.47;100.00;101924.28;5072077;28;20185;-74
2023/02/11 10:16:13;;;;;;;39.70;21.03;;;;;;;6.47;100.00;101935.97;5072181;28;20181;-78
2023/02/11 10:19:04;;;;;;;50.97;27.80;;;;;;;6.41;100.00;101944.28;5072155;28;20303;-77
2023/02/11 10:21:50;;;;;;;26.07;17.80;;;;;;;6.42;100.00;101949.47;5072060;28;20202;-76
2023/02/11 10:24:16;;;;;;;28.23;20.67;;;;;;;6.42;100.00;101956.78;5073379;28;20276;-77
2023/02/11 10:26:44;;;;;;;50.30;26.13;;;;;;;6.38;100.00;101934.75;5082055;28;20170;-77
2023/02/11 10:29:33;;;;;;;30.70;21.90;;;;;;;6.39;100.00;101928.25;5074895;28;20178;-76
2023/02/11 10:32:02;;;;;;;34.90;23.17;;;;;;;6.39;100.00;101927.44;5072191;28;20170;-84
2023/02/11 10:34:28;;;;;;;36.53;19.17;;;;;;;6.42;100.00;101916.88;5070618;28;20686;-83
2023/02/11 10:36:53;;;;;;;43.30;23.80;;;;;;;6.46;100.00;101922.63;5071536;28;20213;-82
2023/02/11 10:39:22;;;;;;;36.20;21.40;;;;;;;6.45;100.00;101929.97;5072037;28;20637;-85
2023/02/11 10:41:53;;;;;;;45.10;28.50;;;;;;;6.38;100.00;101913.03;5072103;28;20174;-86
2023/02/11 10:45:16;;;;;;;27.37;17.73;;;;;;;6.41;100.00;101915.25;5070633;28;20633;-86
2023/02/11 10:47:42;;;;;;;32.53;17.93;;;;;;;6.44;100.00;101898.47;5055645;28;20217;-85
2023/02/11 10:50:19;;;;;;;32.80;19.53;;;;;;;6.44;100.00;101912.03;5071287;28;20209;-87
2023/02/11 10:52:44;;;;;;;36.40;18.27;;;;;;;6.51;100.00;101925.44;5071529;28;20712;-86
2023/02/11 10:55:12;;;;;;;39.87;21.23;;;;;;;6.49;100.00;101931.09;5071495;28;20179;-85
2023/02/11 10:57:45;;;;;;;40.47;20.73;;;;;;;6.51;100.00;101926.28;5071312;28;20187;-84
2023/02/11 11:00:22;;;;;;;21.23;17.40;;;;;;;6.56;100.00;101915.47;5070946;28;20661;-70
2023/02/11 11:03:21;;;;;;;40.77;20.80;;;;;;;6.55;100.00;101900.25;5069990;28;20471;-87
2023/02/11 11:05:56;;;;;;;44.07;25.93;;;;;;;6.53;100.00;101902.41;5066117;28;20198;-82
2023/02/11 11:08:36;;;;;;;34.30;16.20;;;;;;;6.57;100.00;101902.72;5070000;28;20181;-79
2023/02/11 11:11:13;;;;;;;41.23;27.73;;;;;;;6.59;100.00;101900.59;5069761;28;20206;-84
2023/02/11 11:13:53;;;;;;;25.40;17.73;;;;;;;6.61;100.00;101908.47;5071133;28;20289;-88
2023/02/11 11:16:30;;;;;;;30.23;19.37;;;;;;;6.61;100.00;101900.31;5071173;28;20190;-86
2023/02/11 11:19:05;;;;;;;19.17;15.87;;;;;;;6.64;100.00;101908.78;5070977;28;20182;-84
2023/02/11 11:21:51;;;;;;;23.97;15.70;;;;;;;6.64;100.00;101914.22;5071282;28;20186;-87
2023/02/11 11:24:22;;;;;;;42.60;22.13;;;;;;;6.61;100.00;101932.91;5071100;28;20184;-87